createdAt,value
2019-03-08T00:00:39.606Z,97597.36
2019-03-08T00:02:49.052Z,97599.29
2019-03-08T00:04:56.813Z,97605.39
2019-03-08T00:07:04.280Z,97612.43
2019-03-08T00:09:11.990Z,97622.41
2019-03-08T00:11:20.852Z,97620.49
2019-03-08T00:13:29.465Z,97621.77
2019-03-08T00:15:37.245Z,97624.97
2019-03-08T00:17:44.884Z,97630.00
2019-03-08T00:19:52.457Z,97614.69
2019-03-08T00:22:00.070Z,97623.19
2019-03-08T00:24:07.864Z,97632.68
2019-03-08T00:26:15.444Z,97626.50
2019-03-08T00:28:23.186Z,97628.38
2019-03-08T00:30:30.981Z,97634.51
2019-03-08T00:32:38.644Z,97633.39
2019-03-08T00:34:46.240Z,97644.06
2019-03-08T00:36:53.951Z,97654.27
2019-03-08T00:39:01.581Z,97663.47
2019-03-08T00:41:10.867Z,97669.73
2019-03-08T00:43:18.550Z,97680.66
2019-03-08T00:45:26.115Z,97680.91
2019-03-08T00:47:33.831Z,97685.45
2019-03-08T00:49:41.388Z,97689.01
2019-03-08T00:51:49.336Z,97693.55
2019-03-08T00:53:56.953Z,97698.53
2019-03-08T00:56:04.834Z,97699.04
2019-03-08T00:58:12.403Z,97704.55
2019-03-08T01:00:22.348Z,97708.52
2019-03-08T01:02:29.992Z,97703.95
2019-03-08T01:04:37.632Z,97705.72
2019-03-08T01:06:46.527Z,97707.30
2019-03-08T01:08:54.080Z,97708.17
2019-03-08T01:11:01.821Z,97709.71
2019-03-08T01:13:11.860Z,97711.59
2019-03-08T01:15:19.941Z,97721.04
2019-03-08T01:17:27.614Z,97716.64
2019-03-08T01:19:35.205Z,97713.52
2019-03-08T01:21:42.838Z,97716.20
2019-03-08T01:23:50.689Z,97713.83
2019-03-08T01:25:58.438Z,97724.54
2019-03-08T01:28:09.788Z,97715.44
2019-03-08T01:30:17.430Z,97723.95
2019-03-08T01:32:25.308Z,97726.67
2019-03-08T01:34:32.856Z,97736.02
2019-03-08T01:36:40.426Z,97722.49
2019-03-08T01:38:48.092Z,97719.12
2019-03-08T01:40:56.008Z,97719.47
2019-03-08T01:43:03.788Z,97711.92
2019-03-08T01:45:12.365Z,97699.28
2019-03-08T01:47:20.137Z,97702.27
2019-03-08T01:49:27.710Z,97697.43
2019-03-08T01:51:35.314Z,97712.34
2019-03-08T01:53:42.960Z,97720.50
2019-03-08T01:55:50.714Z,97726.11
2019-03-08T01:57:58.377Z,97721.23
2019-03-08T02:00:21.754Z,97720.77
2019-03-08T02:02:29.575Z,97714.37
2019-03-08T02:04:37.312Z,97715.05
2019-03-08T02:06:45.031Z,97716.34
2019-03-08T02:08:52.604Z,97717.31
2019-03-08T02:11:00.268Z,97714.77
2019-03-08T02:13:08.178Z,97710.06
2019-03-08T02:15:18.342Z,97697.27
2019-03-08T02:17:26.015Z,97698.70
2019-03-08T02:19:33.599Z,97688.55
2019-03-08T02:21:41.613Z,97701.70
2019-03-08T02:23:50.300Z,97704.48
2019-03-08T02:25:57.841Z,97701.48
2019-03-08T02:28:05.552Z,97707.91
2019-03-08T02:30:17.056Z,97703.66
2019-03-08T02:32:24.868Z,97714.41
2019-03-08T02:34:32.445Z,97720.48
2019-03-08T02:36:40.049Z,97719.12
2019-03-08T02:38:47.721Z,97713.41
2019-03-08T02:40:55.294Z,97710.09
2019-03-08T02:43:05.869Z,97718.00
2019-03-08T02:45:13.444Z,97714.19
2019-03-08T02:47:21.186Z,97711.91
2019-03-08T02:49:29.069Z,97726.20
2019-03-08T02:51:36.648Z,97722.83
2019-03-08T02:53:44.210Z,97723.59
2019-03-08T02:55:51.812Z,97725.22
2019-03-08T02:57:59.459Z,97719.64
2019-03-08T03:00:10.907Z,97722.24
2019-03-08T03:02:18.920Z,97727.65
2019-03-08T03:04:26.492Z,97732.98
2019-03-08T03:06:34.345Z,97741.86
2019-03-08T03:08:42.046Z,97733.56
2019-03-08T03:10:49.712Z,97740.88
2019-03-08T03:12:57.294Z,97739.73
2019-03-08T03:15:09.194Z,97737.87
2019-03-08T03:17:16.764Z,97736.78
2019-03-08T03:19:24.396Z,97738.23
2019-03-08T03:21:32.461Z,97736.81
2019-03-08T03:23:40.031Z,97735.19
2019-03-08T03:25:47.605Z,97738.92
2019-03-08T03:27:55.220Z,97742.22
2019-03-08T03:30:02.752Z,97746.31
2019-03-08T03:32:10.372Z,97750.45
2019-03-08T03:34:17.877Z,97750.23
2019-03-08T03:36:25.454Z,97754.14
2019-03-08T03:38:33.173Z,97755.07
2019-03-08T03:40:40.776Z,97760.69
2019-03-08T03:42:48.488Z,97760.31
2019-03-08T03:44:56.059Z,97758.26
2019-03-08T03:47:03.655Z,97761.65
2019-03-08T03:49:11.306Z,97756.70
2019-03-08T03:51:19.088Z,97756.27
2019-03-08T03:53:27.035Z,97756.80
2019-03-08T03:55:34.760Z,97760.70
2019-03-08T03:57:43.942Z,97759.66
2019-03-08T03:59:51.672Z,97765.78
2019-03-08T04:01:59.218Z,97758.75
2019-03-08T04:04:06.856Z,97755.25
2019-03-08T04:06:16.721Z,97765.70
2019-03-08T04:08:24.291Z,97754.22
2019-03-08T04:10:32.212Z,97765.50
2019-03-08T04:12:41.096Z,97766.26
2019-03-08T04:14:48.674Z,97770.07
2019-03-08T04:16:57.362Z,97774.56
2019-03-08T04:19:06.327Z,97775.28
2019-03-08T04:21:13.896Z,97766.61
2019-03-08T04:23:21.473Z,97769.47
2019-03-08T04:25:29.191Z,97772.22
2019-03-08T04:27:37.710Z,97772.89
2019-03-08T04:29:45.286Z,97767.52
2019-03-08T04:31:52.959Z,97772.00
2019-03-08T04:34:00.527Z,97775.66
2019-03-08T04:36:08.178Z,97783.20
2019-03-08T04:38:16.109Z,97776.41
2019-03-08T04:40:23.681Z,97769.13
2019-03-08T04:42:31.253Z,97767.78
2019-03-08T04:44:38.859Z,97774.06
2019-03-08T04:46:46.471Z,97770.80
2019-03-08T04:48:54.043Z,97772.51
2019-03-08T04:51:01.670Z,97780.06
2019-03-08T04:53:09.470Z,97781.69
2019-03-08T04:55:21.973Z,97778.79
2019-03-08T04:57:29.844Z,97786.06
2019-03-08T04:59:37.418Z,97781.85
2019-03-08T05:01:45.202Z,97783.95
2019-03-08T05:03:52.709Z,97778.03
2019-03-08T05:06:00.860Z,97786.42
2019-03-08T05:08:08.495Z,97784.23
2019-03-08T05:10:18.103Z,97782.08
2019-03-08T05:12:25.675Z,97782.00
2019-03-08T05:14:33.623Z,97774.73
2019-03-08T05:16:41.211Z,97778.10
2019-03-08T05:18:48.684Z,97782.27
2019-03-08T05:20:56.264Z,97772.44
2019-03-08T05:23:03.874Z,97770.20
2019-03-08T05:25:17.335Z,97777.37
2019-03-08T05:27:24.980Z,97776.57
2019-03-08T05:29:32.676Z,97775.13
2019-03-08T05:31:40.143Z,97773.86
2019-03-08T05:33:47.900Z,97768.69
2019-03-08T05:35:55.509Z,97770.39
2019-03-08T05:38:03.085Z,97772.73
2019-03-08T05:40:16.975Z,97772.27
2019-03-08T05:42:24.625Z,97768.89
2019-03-08T05:44:32.171Z,97768.28
2019-03-08T05:46:39.921Z,97766.63
2019-03-08T05:48:48.756Z,97770.28
2019-03-08T05:50:56.479Z,97768.06
2019-03-08T05:53:04.053Z,97764.41
2019-03-08T05:55:13.360Z,97770.14
2019-03-08T05:57:20.930Z,97766.52
2019-03-08T05:59:28.588Z,97764.44
2019-03-08T06:01:36.258Z,97770.91
2019-03-08T06:03:43.823Z,97764.33
2019-03-08T06:05:51.538Z,97754.33
2019-03-08T06:07:59.327Z,97758.67
2019-03-08T06:10:26.131Z,97764.70
2019-03-08T06:12:33.700Z,97762.98
2019-03-08T06:14:41.300Z,97756.09
2019-03-08T06:16:48.963Z,97749.63
2019-03-08T06:18:56.625Z,97762.77
2019-03-08T06:21:04.384Z,97756.80
2019-03-08T06:23:12.115Z,97748.02
2019-03-08T06:25:19.772Z,97756.23
2019-03-08T06:27:27.378Z,97757.85
2019-03-08T06:29:35.116Z,97756.00
2019-03-08T06:31:42.843Z,97759.78
2019-03-08T06:33:50.451Z,97757.09
2019-03-08T06:35:58.401Z,97755.47
2019-03-08T06:38:05.984Z,97764.91
2019-03-08T06:40:14.814Z,97766.80
2019-03-08T06:42:22.319Z,97775.36
2019-03-08T06:44:29.855Z,97776.59
2019-03-08T06:46:37.560Z,97777.77
2019-03-08T06:48:45.112Z,97779.08
2019-03-08T06:50:52.827Z,97776.83
2019-03-08T06:53:00.427Z,97778.84
2019-03-08T06:55:13.871Z,97773.20
2019-03-08T06:57:21.345Z,97772.20
2019-03-08T06:59:30.672Z,97775.46
2019-03-08T07:01:38.614Z,97786.76
2019-03-08T07:03:46.335Z,97774.84
2019-03-08T07:05:54.048Z,97787.59
2019-03-08T07:08:02.267Z,97790.31
2019-03-08T07:10:10.573Z,97785.22
2019-03-08T07:12:18.175Z,97785.36
2019-03-08T07:14:25.743Z,97784.36
2019-03-08T07:16:33.309Z,97781.59
2019-03-08T07:18:40.978Z,97776.05
2019-03-08T07:20:50.252Z,97782.67
2019-03-08T07:22:57.767Z,97777.03
2019-03-08T07:25:08.133Z,97781.06
2019-03-08T07:27:35.723Z,97778.28
2019-03-08T07:29:43.144Z,97790.73
2019-03-08T07:32:08.583Z,97789.58
2019-03-08T07:34:18.510Z,97783.59
2019-03-08T07:36:25.892Z,97773.84
2019-03-08T07:38:35.033Z,97781.67
2019-03-08T07:40:47.471Z,97760.16
2019-03-08T07:43:05.207Z,97764.53
2019-03-08T07:45:18.424Z,97757.94
2019-03-08T07:47:27.607Z,97754.94
2019-03-08T07:49:50.157Z,97768.27
2019-03-08T07:51:57.515Z,97772.44
2019-03-08T07:54:09.630Z,97774.09
2019-03-08T07:56:24.989Z,97765.30
2019-03-08T07:58:50.298Z,97771.14
2019-03-08T08:01:05.685Z,97765.91
2019-03-08T08:03:28.296Z,97775.48
2019-03-08T08:05:46.518Z,97766.88
2019-03-08T08:08:04.741Z,97776.09
2019-03-08T08:10:14.564Z,97766.46
2019-03-08T08:12:23.797Z,97772.08
2019-03-08T08:14:49.371Z,97766.83
2019-03-08T08:17:07.383Z,97762.52
2019-03-08T08:19:35.286Z,97759.41
2019-03-08T08:21:53.519Z,97770.13
2019-03-08T08:24:02.809Z,97767.08
2019-03-08T08:26:14.661Z,97765.88
2019-03-08T08:28:30.724Z,97771.89
2019-03-08T08:30:40.722Z,97771.75
2019-03-08T08:32:53.081Z,97776.66
2019-03-08T08:35:05.006Z,97783.16
2019-03-08T08:37:17.644Z,97780.50
2019-03-08T08:39:43.747Z,97766.83
2019-03-08T08:42:00.328Z,97772.41
2019-03-08T08:44:09.549Z,97772.41
2019-03-08T08:46:23.058Z,97774.79
2019-03-08T08:48:32.282Z,97785.50
2019-03-08T08:50:53.508Z,97787.25
2019-03-08T08:53:07.102Z,97788.89
2019-03-08T08:55:25.089Z,97790.42
2019-03-08T08:57:32.604Z,97783.02
2019-03-08T08:59:50.703Z,97777.17
2019-03-08T09:02:01.223Z,97789.08
2019-03-08T09:04:16.468Z,97777.83
2019-03-08T09:06:42.110Z,97786.06
2019-03-08T09:08:57.131Z,97790.00
2019-03-08T09:11:22.999Z,97777.48
2019-03-08T09:13:48.425Z,97776.69
2019-03-08T09:15:57.544Z,97775.22
2019-03-08T09:18:09.708Z,97759.83
2019-03-08T09:20:34.882Z,97767.27
2019-03-08T09:23:00.020Z,97762.97
2019-03-08T09:25:19.859Z,97759.95
2019-03-08T09:27:41.840Z,97761.53
2019-03-08T09:29:57.172Z,97748.59
2019-03-08T09:32:10.886Z,97752.89
2019-03-08T09:34:32.406Z,97746.55
2019-03-08T09:36:41.983Z,97748.09
2019-03-08T09:38:51.105Z,97741.58
2019-03-08T09:41:00.338Z,97745.83
2019-03-08T09:43:09.638Z,97736.74
2019-03-08T09:45:25.950Z,97742.51
2019-03-08T09:47:47.303Z,97718.13
2019-03-08T09:49:56.489Z,97735.78
2019-03-08T09:52:05.884Z,97728.42
2019-03-08T09:54:18.290Z,97749.33
2019-03-08T09:56:33.544Z,97724.60
2019-03-08T09:58:48.794Z,97740.71
2019-03-08T10:01:01.083Z,97738.28
2019-03-08T10:03:08.562Z,97738.74
2019-03-08T10:05:20.634Z,97740.86
2019-03-08T10:07:30.061Z,97733.54
2019-03-08T10:09:56.051Z,97748.28
2019-03-08T10:12:03.674Z,97742.68
2019-03-08T10:14:16.061Z,97751.11
2019-03-08T10:16:25.447Z,97752.73
2019-03-08T10:18:44.761Z,97740.64
2019-03-08T10:21:06.007Z,97748.47
2019-03-08T10:23:31.472Z,97745.32
2019-03-08T10:25:56.456Z,97740.30
2019-03-08T10:28:22.260Z,97735.40
2019-03-08T10:30:32.041Z,97736.31
2019-03-08T10:32:41.378Z,97747.17
2019-03-08T10:35:06.800Z,97753.61
2019-03-08T10:37:14.259Z,97746.31
2019-03-08T10:39:23.611Z,97744.57
2019-03-08T10:41:35.637Z,97760.55
2019-03-08T10:43:47.448Z,97743.07
2019-03-08T10:45:59.694Z,97733.84
2019-03-08T10:50:38.844Z,97743.50
2019-03-08T10:52:48.126Z,97729.00
2019-03-08T10:55:01.761Z,97733.11
2019-03-08T10:57:27.043Z,97733.00
2019-03-08T10:59:36.360Z,97731.69
2019-03-08T11:01:45.684Z,97745.84
2019-03-08T11:03:54.906Z,97744.89
2019-03-08T11:06:19.385Z,97730.41
2019-03-08T11:08:30.002Z,97741.04
2019-03-08T11:10:40.718Z,97709.27
2019-03-08T11:12:48.138Z,97730.88
2019-03-08T11:15:10.593Z,97726.90
2019-03-08T11:17:35.955Z,97736.36
2019-03-08T11:19:48.044Z,97739.15
2019-03-08T11:21:57.330Z,97746.61
2019-03-08T11:24:23.084Z,97741.80
2019-03-08T11:26:32.488Z,97731.74
2019-03-08T11:28:44.676Z,97726.65
2019-03-08T11:30:58.489Z,97726.98
2019-03-08T11:33:08.016Z,97715.73
2019-03-08T11:35:19.760Z,97706.84
2019-03-08T11:37:45.449Z,97732.73
2019-03-08T11:39:54.772Z,97701.51
2019-03-08T11:42:10.159Z,97721.96
2019-03-08T11:44:32.766Z,97714.13
2019-03-08T11:46:41.982Z,97739.29
2019-03-08T11:49:09.415Z,97733.67
2019-03-08T11:51:18.632Z,97724.92
2019-03-08T11:53:38.046Z,97738.97
2019-03-08T11:55:47.361Z,97724.11
2019-03-08T11:58:12.437Z,97715.78
2019-03-08T12:00:37.876Z,97727.82
2019-03-08T12:02:52.891Z,97716.62
2019-03-08T12:05:02.086Z,97726.69
2019-03-08T12:07:15.333Z,97709.39
2019-03-08T12:09:30.403Z,97716.16
2019-03-08T12:11:38.049Z,97689.86
2019-03-08T12:14:03.697Z,97712.76
2019-03-08T12:16:19.017Z,97707.95
2019-03-08T12:18:31.377Z,97686.53
2019-03-08T12:20:43.544Z,97705.63
2019-03-08T12:23:11.088Z,97708.64
2019-03-08T12:25:21.878Z,97720.15
2019-03-08T12:27:33.499Z,97715.17
2019-03-08T12:29:59.059Z,97737.73
2019-03-08T12:32:24.663Z,97741.92
2019-03-08T12:34:36.505Z,97734.19
2019-03-08T12:36:53.002Z,97720.35
2019-03-08T12:39:11.416Z,97716.23
2019-03-08T12:41:26.325Z,97721.52
2019-03-08T12:43:33.707Z,97720.81
2019-03-08T12:45:43.945Z,97726.41
2019-03-08T12:47:55.873Z,97713.78
2019-03-08T12:50:22.274Z,97710.98
2019-03-08T12:52:40.512Z,97719.58
2019-03-08T12:54:47.912Z,97728.27
2019-03-08T12:57:10.345Z,97721.39
2019-03-08T12:59:32.752Z,97712.39
2019-03-08T13:01:41.976Z,97732.97
2019-03-08T13:03:58.274Z,97743.03
2019-03-08T13:06:10.040Z,97745.02
2019-03-08T13:08:19.296Z,97750.77
2019-03-08T13:10:26.909Z,97740.09
2019-03-08T13:12:34.563Z,97734.45
2019-03-08T13:14:42.315Z,97761.34
2019-03-08T13:16:49.917Z,97767.09
2019-03-08T13:18:57.561Z,97752.84
2019-03-08T13:21:05.179Z,97748.52
2019-03-08T13:23:12.786Z,97759.16
2019-03-08T13:25:20.361Z,97769.67
2019-03-08T13:27:28.007Z,97772.38
2019-03-08T13:29:35.705Z,97769.56
2019-03-08T13:31:43.382Z,97762.08
2019-03-08T13:33:51.109Z,97756.02
2019-03-08T13:35:58.714Z,97754.83
2019-03-08T13:38:07.018Z,97757.98
2019-03-08T13:40:16.760Z,97775.16
2019-03-08T13:42:24.376Z,97783.81
2019-03-08T13:44:32.020Z,97790.94
2019-03-08T13:46:39.603Z,97802.30
2019-03-08T13:48:47.314Z,97774.11
2019-03-08T13:50:54.789Z,97781.38
2019-03-08T13:53:02.371Z,97804.47
2019-03-08T13:55:19.678Z,97782.89
2019-03-08T13:57:28.325Z,97789.78
2019-03-08T13:59:35.906Z,97791.03
2019-03-08T14:01:43.604Z,97776.67
2019-03-08T14:03:51.594Z,97782.68
2019-03-08T14:05:59.212Z,97781.02
2019-03-08T14:08:06.831Z,97794.22
2019-03-08T14:10:17.827Z,97798.08
2019-03-08T14:12:25.397Z,97804.62
2019-03-08T14:14:33.009Z,97797.94
2019-03-08T14:16:40.586Z,97810.89
2019-03-08T14:18:48.235Z,97803.12
2019-03-08T14:20:56.159Z,97807.39
2019-03-08T14:23:04.369Z,97806.23
2019-03-08T14:25:14.475Z,97808.22
2019-03-08T14:27:22.988Z,97811.86
2019-03-08T14:29:31.837Z,97815.97
2019-03-08T14:31:50.285Z,97809.36
2019-03-08T14:33:57.795Z,97797.48
2019-03-08T14:36:06.122Z,97801.58
2019-03-08T14:38:14.675Z,97816.77
2019-03-08T14:40:40.724Z,97811.07
2019-03-08T14:42:59.078Z,97806.73
2019-03-08T14:45:12.507Z,97815.16
2019-03-08T14:47:21.830Z,97817.97
2019-03-08T14:49:29.864Z,97811.06
2019-03-08T14:51:37.694Z,97805.58
2019-03-08T14:53:45.304Z,97819.48
2019-03-08T14:55:55.220Z,97808.61
2019-03-08T14:58:02.217Z,97821.58
2019-03-08T15:00:25.180Z,97806.84
2019-03-08T15:02:30.969Z,97817.70
2019-03-08T15:04:38.546Z,97797.27
2019-03-08T15:06:46.226Z,97817.91
2019-03-08T15:08:55.059Z,97832.73
2019-03-08T15:11:03.148Z,97827.72
2019-03-08T15:13:10.846Z,97827.66
2019-03-08T15:15:18.762Z,97834.06
2019-03-08T15:17:26.505Z,97847.74
2019-03-08T15:19:36.212Z,97847.18
2019-03-08T15:21:48.207Z,97849.75
2019-03-08T15:23:54.511Z,97846.97
2019-03-08T15:26:02.105Z,97843.87
2019-03-08T15:28:10.319Z,97854.75
2019-03-08T15:30:21.144Z,97848.66
2019-03-08T15:32:28.724Z,97841.64
2019-03-08T15:34:36.392Z,97866.03
2019-03-08T15:36:43.862Z,97869.73
2019-03-08T15:38:58.175Z,97864.45
2019-03-08T15:41:01.081Z,97877.30
2019-03-08T15:43:09.748Z,97882.87
2019-03-08T15:45:18.287Z,97900.88
2019-03-08T15:47:26.550Z,97897.33
2019-03-08T15:49:34.023Z,97904.73
2019-03-08T15:51:41.807Z,97896.88
2019-03-08T15:53:49.341Z,97878.53
2019-03-08T15:55:56.989Z,97905.89
2019-03-08T15:58:04.833Z,97915.16
2019-03-08T16:00:19.458Z,97911.20
2019-03-08T16:02:27.103Z,97926.15
2019-03-08T16:04:34.699Z,97923.00
2019-03-08T16:06:43.863Z,97920.78
2019-03-08T16:08:51.813Z,97912.58
2019-03-08T16:10:59.422Z,97930.39
2019-03-08T16:13:08.645Z,97940.56
2019-03-08T16:15:16.653Z,97932.38
2019-03-08T16:17:24.263Z,97936.73
2019-03-08T16:19:31.932Z,97939.11
2019-03-08T16:21:39.619Z,97950.98
2019-03-08T16:23:47.309Z,97961.59
2019-03-08T16:25:54.886Z,97957.47
2019-03-08T16:28:02.635Z,97975.47
2019-03-08T16:30:31.781Z,97970.36
2019-03-08T16:32:41.051Z,97981.50
2019-03-08T16:34:48.925Z,97979.39
2019-03-08T16:37:14.281Z,97976.27
2019-03-08T16:39:23.561Z,97992.62
2019-03-08T16:41:32.554Z,97994.19
2019-03-08T16:43:42.034Z,98002.48
2019-03-08T16:45:54.943Z,98007.23
2019-03-08T16:48:07.213Z,98017.40
2019-03-08T16:50:22.218Z,98025.81
2019-03-08T16:52:29.900Z,98012.75
2019-03-08T16:54:41.663Z,98033.77
2019-03-08T16:56:53.525Z,98029.74
2019-03-08T16:59:02.748Z,98028.66
2019-03-08T17:01:27.198Z,98035.86
2019-03-08T17:03:43.663Z,98030.64
2019-03-08T17:06:09.198Z,98029.66
2019-03-08T17:08:24.128Z,98031.47
2019-03-08T17:10:49.876Z,98039.63
2019-03-08T17:13:01.968Z,98033.66
2019-03-08T17:15:27.029Z,98031.47
2019-03-08T17:17:40.268Z,98045.05
2019-03-08T17:20:05.702Z,98045.67
2019-03-08T17:22:24.915Z,98049.90
2019-03-08T17:24:37.146Z,98050.53
2019-03-08T17:27:02.690Z,98054.64
2019-03-08T17:29:25.302Z,98057.06
2019-03-08T17:31:41.632Z,98055.90
2019-03-08T17:33:51.605Z,98065.29
2019-03-08T17:36:01.023Z,98065.66
2019-03-08T17:38:11.467Z,98055.48
2019-03-08T17:40:21.480Z,98062.17
2019-03-08T17:42:36.974Z,98062.62
2019-03-08T17:44:55.298Z,98073.02
2019-03-08T17:47:02.645Z,98070.65
2019-03-08T17:49:12.408Z,98069.91
2019-03-08T17:51:24.777Z,98064.14
2019-03-08T17:53:50.299Z,98066.70
2019-03-08T17:55:59.601Z,98069.43
2019-03-08T17:58:15.285Z,98080.63
2019-03-08T18:00:33.592Z,98086.75
2019-03-08T18:02:54.837Z,98081.70
2019-03-08T18:05:09.883Z,98085.63
2019-03-08T18:07:19.108Z,98083.16
2019-03-08T18:09:44.499Z,98080.78
2019-03-08T18:12:02.466Z,98081.22
2019-03-08T18:14:11.785Z,98079.30
2019-03-08T18:16:33.181Z,98080.74
2019-03-08T18:18:43.845Z,98082.55
2019-03-08T18:21:08.184Z,98089.39
2019-03-08T18:23:29.125Z,98088.11
2019-03-08T18:25:54.814Z,98088.91
2019-03-08T18:28:08.085Z,98098.67
2019-03-08T18:30:23.553Z,98101.92
2019-03-08T18:32:36.315Z,98090.29
2019-03-08T18:35:01.533Z,98093.14
2019-03-08T18:37:13.516Z,98094.36
2019-03-08T18:39:28.613Z,98096.98
2019-03-08T18:41:37.840Z,98095.81
2019-03-08T18:43:55.821Z,98102.35
2019-03-08T18:46:18.194Z,98096.44
2019-03-08T18:48:27.492Z,98096.02
2019-03-08T18:50:42.519Z,98107.80
2019-03-08T18:52:58.820Z,98102.55
2019-03-08T18:55:25.801Z,98114.28
2019-03-08T18:57:35.096Z,98111.73
2019-03-08T18:59:48.215Z,98120.26
2019-03-08T19:02:09.548Z,98121.58
2019-03-08T19:04:21.902Z,98130.05
2019-03-08T19:06:37.196Z,98122.25
2019-03-08T19:08:47.604Z,98129.38
2019-03-08T19:10:56.828Z,98131.45
2019-03-08T19:13:18.340Z,98138.59
2019-03-08T19:15:30.246Z,98140.91
2019-03-08T19:17:57.718Z,98147.69
2019-03-08T19:20:13.521Z,98138.23
2019-03-08T19:22:26.895Z,98143.82
2019-03-08T19:24:42.272Z,98153.98
2019-03-08T19:27:07.749Z,98164.69
2019-03-08T19:29:17.045Z,98160.10
2019-03-08T19:31:29.229Z,98165.00
2019-03-08T19:33:40.326Z,98171.64
2019-03-08T19:35:50.394Z,98158.86
2019-03-08T19:38:06.279Z,98172.97
2019-03-08T19:40:18.501Z,98182.31
2019-03-08T19:42:30.901Z,98184.52
2019-03-08T19:44:49.190Z,98182.53
2019-03-08T19:46:56.579Z,98193.11
2019-03-08T19:49:05.844Z,98197.55
2019-03-08T19:51:20.494Z,98209.43
2019-03-08T19:53:32.719Z,98214.52
2019-03-08T19:55:42.019Z,98208.21
2019-03-08T19:58:03.222Z,98208.98
2019-03-08T20:00:21.142Z,98233.23
2019-03-08T20:02:30.426Z,98219.64
2019-03-08T20:04:39.692Z,98227.91
2019-03-08T20:06:51.895Z,98233.25
2019-03-08T20:09:17.090Z,98239.47
2019-03-08T20:11:31.356Z,98248.81
2019-03-08T20:13:43.517Z,98254.58
2019-03-08T20:15:52.691Z,98267.68
2019-03-08T20:18:19.081Z,98267.27
2019-03-08T20:20:40.585Z,98301.81
2019-03-08T20:23:06.416Z,98284.20
2019-03-08T20:25:20.017Z,98283.91
2019-03-08T20:27:39.798Z,98308.10
2019-03-08T20:30:05.275Z,98314.38
2019-03-08T20:32:17.259Z,98334.16
2019-03-08T20:34:29.997Z,98331.95
2019-03-08T20:36:39.212Z,98327.20
2019-03-08T20:38:54.448Z,98334.20
2019-03-08T20:41:07.815Z,98346.09
2019-03-08T20:43:19.931Z,98344.81
2019-03-08T20:45:27.336Z,98348.99
2019-03-08T20:47:36.274Z,98357.05
2019-03-08T20:49:44.185Z,98361.26
2019-03-08T20:51:51.811Z,98354.32
2019-03-08T20:53:59.473Z,98345.30
2019-03-08T20:56:07.281Z,98362.02
2019-03-08T20:58:14.911Z,98357.84
2019-03-08T21:00:22.509Z,98356.45
2019-03-08T21:02:30.121Z,98356.58
2019-03-08T21:04:37.753Z,98363.48
2019-03-08T21:06:45.423Z,98367.30
2019-03-08T21:08:52.988Z,98375.45
2019-03-08T21:11:00.690Z,98391.57
2019-03-08T21:13:08.375Z,98390.75
2019-03-08T21:15:25.001Z,98391.59
2019-03-08T21:17:25.743Z,98389.44
2019-03-08T21:19:33.351Z,98388.70
2019-03-08T21:21:41.005Z,98393.19
2019-03-08T21:23:48.756Z,98404.62
2019-03-08T21:25:56.413Z,98409.94
2019-03-08T21:28:04.215Z,98412.05
2019-03-08T21:30:18.422Z,98412.32
2019-03-08T21:32:26.034Z,98427.50
2019-03-08T21:34:34.478Z,98440.92
2019-03-08T21:36:42.047Z,98443.32
2019-03-08T21:38:49.632Z,98433.91
2019-03-08T21:40:57.192Z,98422.03
2019-03-08T21:43:05.287Z,98436.95
2019-03-08T21:45:17.941Z,98422.31
2019-03-08T21:47:25.501Z,98422.33
2019-03-08T21:49:33.166Z,98424.11
2019-03-08T21:51:40.772Z,98427.97
2019-03-08T21:53:48.326Z,98427.58
2019-03-08T21:55:55.901Z,98429.55
2019-03-08T21:58:03.571Z,98437.38
2019-03-08T22:00:21.411Z,98429.69
2019-03-08T22:02:29.052Z,98430.64
2019-03-08T22:04:42.357Z,98436.05
2019-03-08T22:06:49.942Z,98433.77
2019-03-08T22:08:59.246Z,98441.91
2019-03-08T22:11:11.308Z,98437.05
2019-03-08T22:13:18.954Z,98436.53
2019-03-08T22:15:26.592Z,98432.92
2019-03-08T22:17:34.263Z,98436.45
2019-03-08T22:19:41.842Z,98423.71
2019-03-08T22:21:49.426Z,98426.41
2019-03-08T22:23:57.203Z,98425.88
2019-03-08T22:26:06.276Z,98417.63
2019-03-08T22:28:14.171Z,98414.84
2019-03-08T22:30:22.586Z,98414.94
2019-03-08T22:32:30.214Z,98426.36
2019-03-08T22:34:39.377Z,98430.66
2019-03-08T22:36:46.988Z,98436.12
2019-03-08T22:38:55.605Z,98448.48
2019-03-08T22:41:03.182Z,98446.23
2019-03-08T22:43:11.160Z,98453.20
2019-03-08T22:45:18.921Z,98456.63
2019-03-08T22:47:27.674Z,98455.91
2019-03-08T22:49:35.265Z,98452.75
2019-03-08T22:51:43.918Z,98453.83
2019-03-08T22:53:51.515Z,98455.63
2019-03-08T22:55:59.296Z,98464.50
2019-03-08T22:58:06.868Z,98466.61
2019-03-08T23:00:54.221Z,98466.23
2019-03-08T23:03:03.867Z,98469.96
2019-03-08T23:05:11.826Z,98474.50
2019-03-08T23:07:19.590Z,98483.84
2019-03-08T23:09:28.296Z,98476.70
2019-03-08T23:11:36.021Z,98483.91
2019-03-08T23:13:43.666Z,98482.81
2019-03-08T23:15:52.629Z,98489.61
2019-03-08T23:18:00.278Z,98485.69
2019-03-08T23:20:09.603Z,98488.45
2019-03-08T23:22:17.278Z,98490.71
2019-03-08T23:24:24.928Z,98495.93
2019-03-08T23:26:34.210Z,98498.19
2019-03-08T23:28:43.428Z,98495.36
2019-03-08T23:30:55.644Z,98502.91
2019-03-08T23:33:03.494Z,98489.46
2019-03-08T23:35:11.375Z,98500.33
2019-03-08T23:37:19.081Z,98503.56
2019-03-08T23:39:26.795Z,98500.08
2019-03-08T23:41:34.564Z,98503.56
2019-03-08T23:43:42.132Z,98503.07
2019-03-08T23:45:49.804Z,98508.04
2019-03-08T23:47:57.373Z,98498.77
2019-03-08T23:50:08.530Z,98506.14
2019-03-08T23:52:16.091Z,98504.56
2019-03-08T23:54:23.770Z,98504.14
2019-03-08T23:56:31.404Z,98505.83
2019-03-08T23:58:39.015Z,98500.97
